createdAt,value
2018-03-08T00:00:15.653Z,4.64
2018-03-08T00:01:15.691Z,4.79
2018-03-08T00:02:15.645Z,4.80
2018-03-08T00:03:15.642Z,4.80
2018-03-08T00:04:15.638Z,4.76
2018-03-08T00:05:15.634Z,4.77
2018-03-08T00:06:15.681Z,4.75
2018-03-08T00:07:15.632Z,4.73
2018-03-08T00:08:15.625Z,4.77
2018-03-08T00:09:15.620Z,4.72
2018-03-08T00:10:15.654Z,4.83
2018-03-08T00:11:15.618Z,4.79
2018-03-08T00:12:15.651Z,4.72
2018-03-08T00:13:15.616Z,4.75
2018-03-08T00:14:15.604Z,4.70
2018-03-08T00:15:15.601Z,4.80
2018-03-08T00:16:15.598Z,4.77
2018-03-08T00:17:15.644Z,4.73
2018-03-08T00:18:15.635Z,4.69
2018-03-08T00:19:15.588Z,4.80
2018-03-08T00:20:15.628Z,4.75
2018-03-08T00:21:15.583Z,4.70
2018-03-08T00:22:15.578Z,4.83
2018-03-08T00:23:15.615Z,4.76
2018-03-08T00:24:16.414Z,4.70
2018-03-08T00:25:15.571Z,4.77
2018-03-08T00:26:15.564Z,4.75
2018-03-08T00:27:15.561Z,4.79
2018-03-08T00:28:15.597Z,4.80
2018-03-08T00:29:15.555Z,4.75
2018-03-08T00:30:16.136Z,4.83
2018-03-08T00:31:15.548Z,4.84
2018-03-08T00:32:15.548Z,4.83
2018-03-08T00:33:15.585Z,4.92
2018-03-08T00:34:15.540Z,4.95
2018-03-08T00:35:15.538Z,4.89
2018-03-08T00:36:15.532Z,4.94
2018-03-08T00:37:15.527Z,4.94
2018-03-08T00:38:15.562Z,4.83
2018-03-08T00:39:15.521Z,4.77
2018-03-08T00:40:15.519Z,4.70
2018-03-08T00:41:15.514Z,4.83
2018-03-08T00:42:15.511Z,4.83
2018-03-08T00:43:15.548Z,4.80
2018-03-08T00:44:15.515Z,4.86
2018-03-08T00:45:15.499Z,4.77
2018-03-08T00:46:15.509Z,4.83
2018-03-08T00:47:15.495Z,4.76
2018-03-08T00:48:15.530Z,4.88
2018-03-08T00:49:15.488Z,4.84
2018-03-08T00:50:15.541Z,4.92
2018-03-08T00:51:15.480Z,4.84
2018-03-08T00:52:15.481Z,4.79
2018-03-08T00:53:15.511Z,4.79
2018-03-08T00:54:15.472Z,4.88
2018-03-08T00:55:15.471Z,4.96
2018-03-08T00:56:15.465Z,4.94
2018-03-08T00:57:15.462Z,4.99
2018-03-08T00:58:15.499Z,4.92
2018-03-08T00:59:15.453Z,4.92
2018-03-08T01:00:15.454Z,4.86
2018-03-08T01:01:15.454Z,4.83
2018-03-08T01:02:15.445Z,4.79
2018-03-08T01:03:15.480Z,4.83
2018-03-08T01:04:15.438Z,4.88
2018-03-08T01:05:15.436Z,4.83
2018-03-08T01:06:15.429Z,4.86
2018-03-08T01:07:15.432Z,4.98
2018-03-08T01:08:15.463Z,4.89
2018-03-08T01:09:15.422Z,4.79
2018-03-08T01:10:15.416Z,4.89
2018-03-08T01:11:15.417Z,4.84
2018-03-08T01:12:15.411Z,4.80
2018-03-08T01:13:15.445Z,4.80
2018-03-08T01:14:15.408Z,4.80
2018-03-08T01:15:15.404Z,4.70
2018-03-08T01:16:15.396Z,4.73
2018-03-08T01:17:15.392Z,4.73
2018-03-08T01:18:15.440Z,4.70
2018-03-08T01:19:15.388Z,4.75
2018-03-08T01:20:15.424Z,4.80
2018-03-08T01:21:15.385Z,4.73
2018-03-08T01:22:15.376Z,4.77
2018-03-08T01:23:15.415Z,4.72
2018-03-08T01:24:15.377Z,4.72
2018-03-08T01:25:15.366Z,4.64
2018-03-08T01:26:15.364Z,4.67
2018-03-08T01:27:15.364Z,4.65
2018-03-08T01:28:15.396Z,4.67
2018-03-08T01:29:15.353Z,4.65
2018-03-08T01:30:15.349Z,4.77
2018-03-08T01:31:15.347Z,4.77
2018-03-08T01:32:15.348Z,4.88
2018-03-08T01:33:15.384Z,4.84
2018-03-08T01:34:15.338Z,4.84
2018-03-08T01:35:15.334Z,4.77
2018-03-08T01:36:15.331Z,4.84
2018-03-08T01:37:15.326Z,4.79
2018-03-08T01:38:15.372Z,4.79
2018-03-08T01:39:15.319Z,4.76
2018-03-08T01:40:15.368Z,4.84
2018-03-08T01:41:15.312Z,4.79
2018-03-08T01:42:15.312Z,4.88
2018-03-08T01:43:15.307Z,4.88
2018-03-08T01:44:15.304Z,4.89
2018-03-08T01:45:15.340Z,4.95
2018-03-08T01:46:15.297Z,4.86
2018-03-08T01:47:15.858Z,4.98
2018-03-08T01:48:15.340Z,4.92
2018-03-08T01:49:15.288Z,4.92
2018-03-08T01:50:15.323Z,4.83
2018-03-08T01:51:15.281Z,4.84
2018-03-08T01:52:15.448Z,4.80
2018-03-08T01:53:15.273Z,4.72
2018-03-08T01:54:15.312Z,4.69
2018-03-08T01:55:15.276Z,4.73
2018-03-08T01:56:15.263Z,4.79
2018-03-08T01:57:15.260Z,4.77
2018-03-08T01:58:15.294Z,4.80
2018-03-08T01:59:15.303Z,4.77
2018-03-08T02:00:15.303Z,4.79
2018-03-08T02:01:15.249Z,4.83
2018-03-08T02:02:15.242Z,4.88
2018-03-08T02:03:15.239Z,4.86
2018-03-08T02:04:15.240Z,4.77
2018-03-08T02:05:16.042Z,4.67
2018-03-08T02:06:15.229Z,4.88
2018-03-08T02:07:15.226Z,4.77
2018-03-08T02:08:15.224Z,4.88
2018-03-08T02:09:15.281Z,4.80
2018-03-08T02:10:15.216Z,4.84
2018-03-08T02:11:15.212Z,4.80
2018-03-08T02:12:15.210Z,4.86
2018-03-08T02:13:15.208Z,4.72
2018-03-08T02:14:15.203Z,4.76
2018-03-08T02:15:15.255Z,4.86
2018-03-08T02:16:15.200Z,4.76
2018-03-08T02:17:15.194Z,4.76
2018-03-08T02:18:15.189Z,4.79
2018-03-08T02:19:15.190Z,4.84
2018-03-08T02:20:15.236Z,4.77
2018-03-08T02:21:15.180Z,4.77
2018-03-08T02:22:15.178Z,4.70
2018-03-08T02:23:15.172Z,4.69
2018-03-08T02:24:15.168Z,4.67
2018-03-08T02:25:15.223Z,4.69
2018-03-08T02:26:15.207Z,4.72
2018-03-08T02:27:15.157Z,4.73
2018-03-08T02:28:15.154Z,4.65
2018-03-08T02:29:15.151Z,4.67
2018-03-08T02:30:15.151Z,4.69
2018-03-08T02:31:15.183Z,4.64
2018-03-08T02:32:15.140Z,4.62
2018-03-08T02:33:15.135Z,4.62
2018-03-08T02:34:15.133Z,4.62
2018-03-08T02:35:15.131Z,4.72
2018-03-08T02:36:15.167Z,4.55
2018-03-08T02:37:15.122Z,4.73
2018-03-08T02:38:15.122Z,4.70
2018-03-08T02:39:15.128Z,4.59
2018-03-08T02:40:15.113Z,4.64
2018-03-08T02:41:15.152Z,4.65
2018-03-08T02:42:15.103Z,4.67
2018-03-08T02:43:15.108Z,4.65
2018-03-08T02:44:15.097Z,4.67
2018-03-08T02:45:15.133Z,4.64
2018-03-08T02:46:15.090Z,4.73
2018-03-08T02:47:15.968Z,4.59
2018-03-08T02:48:15.087Z,4.64
2018-03-08T02:49:15.081Z,4.64
2018-03-08T02:50:15.125Z,4.70
2018-03-08T02:51:15.074Z,4.69
2018-03-08T02:52:15.070Z,4.70
2018-03-08T02:53:15.070Z,4.67
2018-03-08T02:54:15.062Z,4.80
2018-03-08T02:55:15.106Z,4.79
2018-03-08T02:56:15.059Z,4.83
2018-03-08T02:57:15.056Z,4.77
2018-03-08T02:58:15.052Z,4.84
2018-03-08T02:59:15.048Z,4.83
2018-03-08T03:00:15.088Z,4.79
2018-03-08T03:01:15.039Z,4.84
2018-03-08T03:02:15.043Z,4.84
2018-03-08T03:03:15.035Z,4.88
2018-03-08T03:04:15.032Z,4.83
2018-03-08T03:05:15.069Z,4.72
2018-03-08T03:06:15.024Z,4.75
2018-03-08T03:07:15.022Z,4.86
2018-03-08T03:08:15.015Z,4.83
2018-03-08T03:09:15.012Z,4.83
2018-03-08T03:10:15.048Z,4.80
2018-03-08T03:11:15.006Z,4.76
2018-03-08T03:12:15.003Z,4.67
2018-03-08T03:13:15.038Z,4.76
2018-03-08T03:14:14.994Z,4.73
2018-03-08T03:15:14.993Z,4.80
2018-03-08T03:16:14.989Z,4.72
2018-03-08T03:17:15.069Z,4.76
2018-03-08T03:18:15.021Z,4.72
2018-03-08T03:19:14.980Z,4.76
2018-03-08T03:20:14.982Z,4.72
2018-03-08T03:21:14.972Z,4.76
2018-03-08T03:22:14.966Z,4.67
2018-03-08T03:23:15.008Z,4.75
2018-03-08T03:24:14.961Z,4.64
2018-03-08T03:25:14.958Z,4.73
2018-03-08T03:26:14.957Z,4.73
2018-03-08T03:27:14.950Z,4.73
2018-03-08T03:28:14.987Z,4.73
2018-03-08T03:29:14.943Z,4.69
2018-03-08T03:30:14.941Z,4.65
2018-03-08T03:31:14.945Z,4.69
2018-03-08T03:32:14.933Z,4.65
2018-03-08T03:33:14.969Z,4.67
2018-03-08T03:34:14.929Z,4.72
2018-03-08T03:35:14.928Z,4.72
2018-03-08T03:36:14.920Z,4.77
2018-03-08T03:37:14.915Z,4.69
2018-03-08T03:38:14.955Z,4.70
2018-03-08T03:39:14.906Z,4.58
2018-03-08T03:40:14.907Z,4.61
2018-03-08T03:41:14.908Z,4.59
2018-03-08T03:42:14.900Z,4.65
2018-03-08T03:43:14.938Z,4.64
2018-03-08T03:44:14.928Z,4.61
2018-03-08T03:45:14.889Z,4.62
2018-03-08T03:46:14.887Z,4.58
2018-03-08T03:47:14.879Z,4.54
2018-03-08T03:48:14.881Z,4.55
2018-03-08T03:49:14.917Z,4.52
2018-03-08T03:50:14.871Z,4.57
2018-03-08T03:51:14.865Z,4.55
2018-03-08T03:52:14.865Z,4.59
2018-03-08T03:53:14.859Z,4.58
2018-03-08T03:54:14.898Z,4.54
2018-03-08T03:55:14.860Z,4.62
2018-03-08T03:56:14.853Z,4.65
2018-03-08T03:57:14.846Z,4.47
2018-03-08T03:58:14.844Z,4.54
2018-03-08T03:59:14.882Z,4.51
2018-03-08T04:00:14.846Z,4.54
2018-03-08T04:01:14.833Z,4.52
2018-03-08T04:02:14.830Z,4.51
2018-03-08T04:03:14.825Z,4.43
2018-03-08T04:04:14.863Z,4.42
2018-03-08T04:05:14.818Z,4.46
2018-03-08T04:06:14.819Z,4.55
2018-03-08T04:07:14.813Z,4.46
2018-03-08T04:08:14.809Z,4.54
2018-03-08T04:09:14.846Z,4.37
2018-03-08T04:10:14.802Z,4.55
2018-03-08T04:11:14.797Z,4.50
2018-03-08T04:12:14.817Z,4.40
2018-03-08T04:13:14.790Z,4.34
2018-03-08T04:14:14.858Z,4.37
2018-03-08T04:15:14.783Z,4.46
2018-03-08T04:16:14.779Z,4.39
2018-03-08T04:17:14.775Z,4.39
2018-03-08T04:18:14.775Z,4.37
2018-03-08T04:19:14.812Z,4.39
2018-03-08T04:20:14.810Z,4.36
2018-03-08T04:21:14.763Z,4.37
2018-03-08T04:22:14.758Z,4.29
2018-03-08T04:23:14.757Z,4.21
2018-03-08T04:24:14.753Z,4.12
2018-03-08T04:25:14.822Z,4.15
2018-03-08T04:26:14.745Z,4.14
2018-03-08T04:27:14.745Z,4.07
2018-03-08T04:28:14.737Z,4.12
2018-03-08T04:29:14.730Z,4.14
2018-03-08T04:30:14.769Z,4.14
2018-03-08T04:31:14.727Z,4.15
2018-03-08T04:32:14.722Z,4.15
2018-03-08T04:33:14.718Z,4.19
2018-03-08T04:34:14.714Z,4.10
2018-03-08T04:35:14.754Z,4.15
2018-03-08T04:36:14.706Z,4.16
2018-03-08T04:37:14.701Z,4.24
2018-03-08T04:38:14.699Z,4.25
2018-03-08T04:39:14.733Z,4.42
2018-03-08T04:40:14.689Z,4.42
2018-03-08T04:41:14.732Z,4.39
2018-03-08T04:42:14.684Z,4.51
2018-03-08T04:43:14.680Z,4.43
2018-03-08T04:44:14.724Z,4.39
2018-03-08T04:45:14.674Z,4.40
2018-03-08T04:46:14.668Z,4.42
2018-03-08T04:47:14.663Z,4.37
2018-03-08T04:48:14.663Z,4.37
2018-03-08T04:49:14.696Z,4.42
2018-03-08T04:50:14.652Z,4.46
2018-03-08T04:51:14.649Z,4.50
2018-03-08T04:52:14.686Z,4.47
2018-03-08T04:53:14.645Z,4.47
2018-03-08T04:54:14.638Z,4.50
2018-03-08T04:55:14.639Z,4.37
2018-03-08T04:56:14.631Z,4.40
2018-03-08T04:57:14.675Z,4.42
2018-03-08T04:58:14.622Z,4.36
2018-03-08T04:59:14.620Z,4.37
2018-03-08T05:00:14.617Z,4.37
2018-03-08T05:01:14.613Z,4.36
2018-03-08T05:02:14.651Z,4.37
2018-03-08T05:03:14.605Z,4.39
2018-03-08T05:04:14.601Z,4.40
2018-03-08T05:05:14.602Z,4.50
2018-03-08T05:06:14.593Z,4.52
2018-03-08T05:07:14.629Z,4.44
2018-03-08T05:08:14.590Z,4.42
2018-03-08T05:09:14.582Z,4.42
2018-03-08T05:10:14.581Z,4.51
2018-03-08T05:11:14.574Z,4.44
2018-03-08T05:12:14.613Z,4.47
2018-03-08T05:13:14.569Z,4.52
2018-03-08T05:14:14.566Z,4.42
2018-03-08T05:15:14.560Z,4.42
2018-03-08T05:16:14.558Z,4.42
2018-03-08T05:17:14.595Z,4.37
2018-03-08T05:18:14.549Z,4.37
2018-03-08T05:19:14.546Z,4.39
2018-03-08T05:20:14.544Z,4.40
2018-03-08T05:21:14.539Z,4.50
2018-03-08T05:22:14.577Z,4.42
2018-03-08T05:23:14.536Z,4.46
2018-03-08T05:24:14.527Z,4.47
2018-03-08T05:25:14.525Z,4.43
2018-03-08T05:26:14.534Z,4.47
2018-03-08T05:27:14.567Z,4.51
2018-03-08T05:28:14.517Z,4.37
2018-03-08T05:29:14.551Z,4.40
2018-03-08T05:30:14.507Z,4.37
2018-03-08T05:31:14.502Z,4.36
2018-03-08T05:32:14.540Z,4.28
2018-03-08T05:33:14.494Z,4.40
2018-03-08T05:34:14.492Z,4.29
2018-03-08T05:35:14.488Z,4.32
2018-03-08T05:36:14.484Z,4.25
2018-03-08T05:37:14.527Z,4.24
2018-03-08T05:38:14.478Z,4.18
2018-03-08T05:39:14.478Z,4.12
2018-03-08T05:40:14.471Z,4.18
2018-03-08T05:41:14.469Z,4.15
2018-03-08T05:42:14.506Z,4.14
2018-03-08T05:43:14.456Z,4.15
2018-03-08T05:44:14.456Z,4.22
2018-03-08T05:45:14.451Z,4.24
2018-03-08T05:46:14.445Z,4.25
2018-03-08T05:47:14.487Z,4.16
2018-03-08T05:48:14.441Z,4.25
2018-03-08T05:49:14.476Z,4.22
2018-03-08T05:50:14.433Z,4.18
2018-03-08T05:51:14.429Z,4.21
2018-03-08T05:52:15.350Z,4.24
2018-03-08T05:53:14.464Z,4.24
2018-03-08T05:54:14.457Z,4.24
2018-03-08T05:55:14.414Z,4.29
2018-03-08T05:56:14.416Z,4.22
2018-03-08T05:57:14.406Z,4.16
2018-03-08T05:58:14.450Z,4.15
2018-03-08T05:59:14.398Z,4.16
2018-03-08T06:00:14.398Z,4.18
2018-03-08T06:01:14.391Z,4.18
2018-03-08T06:02:14.386Z,4.18
2018-03-08T06:03:14.421Z,4.22
2018-03-08T06:04:14.379Z,4.15
2018-03-08T06:05:14.391Z,4.16
2018-03-08T06:06:14.376Z,4.25
2018-03-08T06:07:14.368Z,4.21
2018-03-08T06:08:14.422Z,4.21
2018-03-08T06:09:14.360Z,4.25
2018-03-08T06:10:15.012Z,4.29
2018-03-08T06:11:14.368Z,4.28
2018-03-08T06:12:14.354Z,4.36
2018-03-08T06:13:14.381Z,4.39
2018-03-08T06:14:14.346Z,4.39
2018-03-08T06:15:14.339Z,4.39
2018-03-08T06:16:14.336Z,4.42
2018-03-08T06:17:14.330Z,4.37
2018-03-08T06:18:14.370Z,4.39
2018-03-08T06:19:14.327Z,4.37
2018-03-08T06:20:14.323Z,4.37
2018-03-08T06:21:14.316Z,4.42
2018-03-08T06:22:14.312Z,4.39
2018-03-08T06:23:14.346Z,4.39
2018-03-08T06:24:14.306Z,4.37
2018-03-08T06:25:14.302Z,4.40
2018-03-08T06:26:14.345Z,4.42
2018-03-08T06:27:14.294Z,4.40
2018-03-08T06:28:14.337Z,4.43
2018-03-08T06:29:14.700Z,4.50
2018-03-08T06:30:14.285Z,4.44
2018-03-08T06:31:14.280Z,4.51
2018-03-08T06:32:14.277Z,4.51
2018-03-08T06:33:14.312Z,4.46
2018-03-08T06:34:14.309Z,4.54
2018-03-08T06:35:14.268Z,4.55
2018-03-08T06:36:14.265Z,4.59
2018-03-08T06:37:14.260Z,4.61
2018-03-08T06:38:14.255Z,4.57
2018-03-08T06:39:14.292Z,4.57
2018-03-08T06:40:14.893Z,4.59
2018-03-08T06:41:14.245Z,4.67
2018-03-08T06:42:14.239Z,4.69
2018-03-08T06:43:14.238Z,4.70
2018-03-08T06:44:14.286Z,4.67
2018-03-08T06:45:14.233Z,4.67
2018-03-08T06:46:14.230Z,4.73
2018-03-08T06:47:14.232Z,4.83
2018-03-08T06:48:14.261Z,4.84
2018-03-08T06:49:14.221Z,4.91
2018-03-08T06:50:14.252Z,4.88
2018-03-08T06:51:14.986Z,4.98
2018-03-08T06:52:14.822Z,4.91
2018-03-08T06:53:14.826Z,4.99
2018-03-08T06:54:14.202Z,5.46
2018-03-08T06:55:14.239Z,5.88
2018-03-08T06:56:14.196Z,6.29
2018-03-08T06:57:14.192Z,6.54
2018-03-08T06:58:14.193Z,6.77
2018-03-08T06:59:14.189Z,6.32
2018-03-08T07:00:14.224Z,5.64
2018-03-08T07:01:14.182Z,5.57
2018-03-08T07:02:14.182Z,6.29
2018-03-08T07:03:14.181Z,6.58
2018-03-08T07:04:14.176Z,6.81
2018-03-08T07:05:14.217Z,7.02
2018-03-08T07:06:14.170Z,6.76
2018-03-08T07:07:14.173Z,7.02
2018-03-08T07:08:14.169Z,7.01
2018-03-08T07:09:14.167Z,7.26
2018-03-08T07:10:14.209Z,7.35
2018-03-08T07:11:14.163Z,7.52
2018-03-08T07:12:14.259Z,7.75
2018-03-08T07:13:14.162Z,7.63
2018-03-08T07:14:14.169Z,7.82
2018-03-08T07:15:14.200Z,7.87
2018-03-08T07:16:14.162Z,7.97
2018-03-08T07:17:14.160Z,8.08
2018-03-08T07:18:14.161Z,7.97
2018-03-08T07:19:14.159Z,8.32
2018-03-08T07:20:14.200Z,8.04
2018-03-08T07:21:14.157Z,8.11
2018-03-08T07:22:14.157Z,8.33
2018-03-08T07:23:14.160Z,8.33
2018-03-08T07:24:14.161Z,8.29
2018-03-08T07:25:14.200Z,8.66
2018-03-08T07:26:14.157Z,8.60
2018-03-08T07:27:14.159Z,8.76
2018-03-08T07:28:14.161Z,8.50
2018-03-08T07:29:14.160Z,9.12
2018-03-08T07:30:14.210Z,9.09
2018-03-08T07:31:14.163Z,9.02
2018-03-08T07:32:14.164Z,8.76
2018-03-08T07:33:14.170Z,8.83
2018-03-08T07:34:14.202Z,8.86
2018-03-08T07:35:14.178Z,8.58
2018-03-08T07:36:14.209Z,8.71
2018-03-08T07:37:14.170Z,8.57
2018-03-08T07:38:14.173Z,8.36
2018-03-08T07:39:14.175Z,8.84
2018-03-08T07:40:14.176Z,8.76
2018-03-08T07:41:14.218Z,8.81
2018-03-08T07:42:14.180Z,8.71
2018-03-08T07:43:14.180Z,8.63
2018-03-08T07:44:14.183Z,8.88
2018-03-08T07:45:14.210Z,8.94
2018-03-08T07:46:14.275Z,8.10
2018-03-08T07:47:14.187Z,8.54
2018-03-08T07:48:14.229Z,8.66
2018-03-08T07:49:14.194Z,8.53
2018-03-08T07:50:14.195Z,8.54
2018-03-08T07:51:14.239Z,8.40
2018-03-08T07:52:14.200Z,8.48
2018-03-08T07:53:14.201Z,8.58
2018-03-08T07:54:14.207Z,8.44
2018-03-08T07:55:14.208Z,8.04
2018-03-08T07:56:14.254Z,7.40
2018-03-08T07:57:14.212Z,7.27
2018-03-08T07:58:14.250Z,7.29
2018-03-08T07:59:14.222Z,7.58
2018-03-08T08:00:14.221Z,7.07
2018-03-08T08:01:14.219Z,6.81
2018-03-08T08:02:14.282Z,6.90
2018-03-08T08:03:14.231Z,7.17
2018-03-08T08:04:14.230Z,7.52
2018-03-08T08:05:14.230Z,7.69
2018-03-08T08:06:14.232Z,7.63
2018-03-08T08:07:14.275Z,8.47
2018-03-08T08:08:14.234Z,8.42
2018-03-08T08:09:14.240Z,7.41
2018-03-08T08:10:14.238Z,7.37
2018-03-08T08:11:14.249Z,6.97
2018-03-08T08:12:14.285Z,7.15
2018-03-08T08:13:14.247Z,7.82
2018-03-08T08:14:14.281Z,7.55
2018-03-08T08:15:14.244Z,8.07
2018-03-08T08:16:14.245Z,7.37
2018-03-08T08:17:14.249Z,7.20
2018-03-08T08:18:14.290Z,7.77
2018-03-08T08:19:15.192Z,7.89
2018-03-08T08:20:14.260Z,7.67
2018-03-08T08:21:14.254Z,7.71
2018-03-08T08:22:14.295Z,7.26
2018-03-08T08:23:14.259Z,8.08
2018-03-08T08:24:14.263Z,8.40
2018-03-08T08:25:14.261Z,7.87
2018-03-08T08:26:14.266Z,8.02
2018-03-08T08:27:14.305Z,7.53
2018-03-08T08:28:14.271Z,7.44
2018-03-08T08:29:14.269Z,7.34
2018-03-08T08:30:14.272Z,7.17
2018-03-08T08:31:14.278Z,6.98
2018-03-08T08:32:14.312Z,6.73
2018-03-08T08:33:14.274Z,6.68
2018-03-08T08:34:14.325Z,6.46
2018-03-08T08:35:14.278Z,6.26
2018-03-08T08:36:14.278Z,5.98
2018-03-08T08:37:14.318Z,5.89
2018-03-08T08:38:14.278Z,5.78
2018-03-08T08:39:14.278Z,5.78
2018-03-08T08:40:14.281Z,5.82
2018-03-08T08:41:14.279Z,6.99
2018-03-08T08:42:14.338Z,7.77
2018-03-08T08:43:14.278Z,7.09
2018-03-08T08:44:14.276Z,7.26
2018-03-08T08:45:14.277Z,7.47
2018-03-08T08:46:14.624Z,7.56
2018-03-08T08:47:14.317Z,7.17
2018-03-08T08:48:14.281Z,7.71
2018-03-08T08:49:14.279Z,8.12
2018-03-08T08:50:14.279Z,7.94
2018-03-08T08:51:14.283Z,7.89
2018-03-08T08:52:14.322Z,7.85
2018-03-08T08:53:14.283Z,7.89
2018-03-08T08:54:14.284Z,7.78
2018-03-08T08:55:14.288Z,7.32
2018-03-08T08:56:14.292Z,7.16
2018-03-08T08:57:14.335Z,7.02
2018-03-08T08:58:14.291Z,6.94
2018-03-08T08:59:14.334Z,6.72
2018-03-08T09:00:14.305Z,6.54
2018-03-08T09:01:14.291Z,6.62
2018-03-08T09:02:14.293Z,6.56
2018-03-08T09:03:14.302Z,6.61
2018-03-08T09:04:14.340Z,6.43
2018-03-08T09:05:14.297Z,6.51
2018-03-08T09:06:14.300Z,6.56
2018-03-08T09:07:14.307Z,6.68
2018-03-08T09:08:14.298Z,6.77
2018-03-08T09:09:14.336Z,6.91
2018-03-08T09:10:14.296Z,6.73
2018-03-08T09:11:14.297Z,6.86
2018-03-08T09:12:14.343Z,6.90
2018-03-08T09:13:14.298Z,6.98
2018-03-08T09:14:14.333Z,6.77
2018-03-08T09:15:14.355Z,7.93
2018-03-08T09:16:14.298Z,8.73
2018-03-08T09:17:14.341Z,8.76
2018-03-08T09:18:14.292Z,8.76
2018-03-08T09:19:14.336Z,8.83
2018-03-08T09:20:14.298Z,8.68
2018-03-08T09:21:14.310Z,8.58
2018-03-08T09:22:14.315Z,8.54
2018-03-08T09:23:14.344Z,8.63
2018-03-08T09:24:14.305Z,9.70
2018-03-08T09:25:14.305Z,9.66
2018-03-08T09:26:14.308Z,9.61
2018-03-08T09:27:14.353Z,9.27
2018-03-08T09:28:14.319Z,9.34
2018-03-08T09:29:14.355Z,9.66
2018-03-08T09:30:14.321Z,10.19
2018-03-08T09:31:14.323Z,10.18
2018-03-08T09:32:14.330Z,10.24
2018-03-08T09:33:14.372Z,10.34
2018-03-08T09:34:14.339Z,10.86
2018-03-08T09:35:14.344Z,11.24
2018-03-08T09:36:14.377Z,10.62
2018-03-08T09:37:15.229Z,10.59
2018-03-08T09:38:14.470Z,10.89
2018-03-08T09:39:15.295Z,11.25
2018-03-08T09:40:15.492Z,10.89
2018-03-08T09:41:14.498Z,10.76
2018-03-08T09:42:16.231Z,11.07
2018-03-08T09:43:15.486Z,11.27
2018-03-08T09:44:15.399Z,11.46
2018-03-08T09:45:18.900Z,11.53
2018-03-08T09:46:17.142Z,11.31
2018-03-08T09:47:17.233Z,11.09
2018-03-08T09:48:14.484Z,11.06
2018-03-08T09:49:17.044Z,11.28
2018-03-08T09:50:19.256Z,11.25
2018-03-08T09:51:16.358Z,11.50
2018-03-08T09:52:16.042Z,10.68
2018-03-08T09:53:17.017Z,10.81
2018-03-08T09:54:16.235Z,10.95
2018-03-08T09:55:15.365Z,10.12
2018-03-08T09:56:14.772Z,10.10
2018-03-08T09:57:18.234Z,10.32
2018-03-08T09:58:18.305Z,10.28
2018-03-08T09:59:15.517Z,10.70
2018-03-08T10:00:16.751Z,10.81
2018-03-08T10:01:15.549Z,10.71
2018-03-08T10:02:16.324Z,10.21
2018-03-08T10:03:18.029Z,10.81
2018-03-08T10:04:14.835Z,11.46
2018-03-08T10:05:20.760Z,11.74
2018-03-08T10:06:15.292Z,12.12
2018-03-08T10:07:14.949Z,12.04
2018-03-08T10:08:16.858Z,12.20
2018-03-08T10:09:14.930Z,12.49
2018-03-08T10:10:18.256Z,12.89
2018-03-08T10:11:14.652Z,12.64
2018-03-08T10:12:14.742Z,12.51
2018-03-08T10:13:14.741Z,12.41
2018-03-08T10:14:14.683Z,12.04
2018-03-08T10:15:14.734Z,12.26
2018-03-08T10:16:14.703Z,12.45
2018-03-08T10:17:14.712Z,12.70
2018-03-08T10:18:14.759Z,12.12
2018-03-08T10:19:14.727Z,11.67
2018-03-08T10:20:14.739Z,10.17
2018-03-08T10:21:14.787Z,9.88
2018-03-08T10:22:14.758Z,9.76
2018-03-08T10:23:14.768Z,9.57
2018-03-08T10:24:14.779Z,9.50
2018-03-08T10:25:14.789Z,9.63
2018-03-08T10:26:14.836Z,9.81
2018-03-08T10:27:14.807Z,9.73
2018-03-08T10:28:14.813Z,9.56
2018-03-08T10:29:14.819Z,9.58
2018-03-08T10:30:14.830Z,9.32
2018-03-08T10:31:14.875Z,9.18
2018-03-08T10:32:14.884Z,9.46
2018-03-08T10:33:14.897Z,10.06
2018-03-08T10:34:14.850Z,9.73
2018-03-08T10:35:14.856Z,9.50
2018-03-08T10:36:14.902Z,9.32
2018-03-08T10:37:14.903Z,9.04
2018-03-08T10:38:14.872Z,8.94
2018-03-08T10:40:14.879Z,10.46
2018-03-08T10:41:14.990Z,10.28
2018-03-08T10:42:14.888Z,9.70
2018-03-08T10:43:14.893Z,10.68
2018-03-08T10:44:14.902Z,10.68
2018-03-08T10:45:14.904Z,10.21
2018-03-08T10:46:14.951Z,9.58
2018-03-08T10:47:14.916Z,9.43
2018-03-08T10:48:14.922Z,9.31
2018-03-08T10:49:14.932Z,9.20
2018-03-08T10:50:14.935Z,9.06
2018-03-08T10:51:14.979Z,8.91
2018-03-08T10:52:15.027Z,8.69
2018-03-08T10:53:14.948Z,8.90
2018-03-08T10:54:14.953Z,8.97
2018-03-08T10:55:14.954Z,8.99
2018-03-08T10:56:15.002Z,9.21
2018-03-08T10:57:15.841Z,9.18
2018-03-08T10:58:14.968Z,8.91
2018-03-08T10:59:14.975Z,8.90
2018-03-08T11:00:14.976Z,8.87
2018-03-08T11:01:15.044Z,8.54
2018-03-08T11:02:14.981Z,8.71
2018-03-08T11:03:14.983Z,8.88
2018-03-08T11:04:14.989Z,9.05
2018-03-08T11:05:14.988Z,9.04
2018-03-08T11:06:15.030Z,9.96
2018-03-08T11:07:14.994Z,10.81
2018-03-08T11:08:15.000Z,10.84
2018-03-08T11:09:15.003Z,10.96
2018-03-08T11:10:15.004Z,10.37
2018-03-08T11:11:15.049Z,10.30
2018-03-08T11:12:15.013Z,10.59
2018-03-08T11:13:15.017Z,10.84
2018-03-08T11:14:15.024Z,11.41
2018-03-08T11:15:15.030Z,11.20
2018-03-08T11:16:15.079Z,10.47
2018-03-08T11:17:15.042Z,10.17
2018-03-08T11:18:15.077Z,9.89
2018-03-08T11:19:15.056Z,9.10
2018-03-08T11:20:15.062Z,8.96
2018-03-08T11:21:15.106Z,8.96
2018-03-08T11:22:15.117Z,9.31
2018-03-08T11:23:15.691Z,9.48
2018-03-08T11:24:15.086Z,9.78
2018-03-08T11:25:15.088Z,10.88
2018-03-08T11:26:15.095Z,10.56
2018-03-08T11:27:15.135Z,10.44
2018-03-08T11:28:15.105Z,10.88
2018-03-08T11:29:15.108Z,10.47
2018-03-08T11:30:15.119Z,10.98
2018-03-08T11:31:15.121Z,11.11
2018-03-08T11:32:15.169Z,11.06
2018-03-08T11:33:15.134Z,10.62
2018-03-08T11:34:15.138Z,10.28
2018-03-08T11:35:15.145Z,9.97
2018-03-08T11:36:15.152Z,9.82
2018-03-08T11:37:15.199Z,9.83
2018-03-08T11:38:15.164Z,9.89
2018-03-08T11:39:15.168Z,10.26
2018-03-08T11:40:15.173Z,10.81
2018-03-08T11:41:15.222Z,10.46
2018-03-08T11:42:15.187Z,10.43
2018-03-08T11:43:15.191Z,10.73
2018-03-08T11:44:15.199Z,11.27
2018-03-08T11:45:15.199Z,11.82
2018-03-08T11:46:15.253Z,12.24
2018-03-08T11:47:15.217Z,12.75
2018-03-08T11:48:15.223Z,12.26
2018-03-08T11:49:15.229Z,12.11
2018-03-08T11:50:15.237Z,12.19
2018-03-08T11:51:15.285Z,11.54
2018-03-08T11:52:15.293Z,11.31
2018-03-08T11:53:15.264Z,11.74
2018-03-08T11:54:16.284Z,11.27
2018-03-08T11:55:15.284Z,10.58
2018-03-08T11:56:15.294Z,11.24
2018-03-08T11:57:15.341Z,11.46
2018-03-08T11:58:15.318Z,11.74
2018-03-08T11:59:15.325Z,11.99
2018-03-08T12:00:15.351Z,12.26
2018-03-08T12:01:15.347Z,12.08
2018-03-08T12:02:15.394Z,12.23
2018-03-08T12:03:15.369Z,11.64
2018-03-08T12:04:15.379Z,11.53
2018-03-08T12:05:15.391Z,10.88
2018-03-08T12:06:15.401Z,10.94
2018-03-08T12:07:15.458Z,11.02
2018-03-08T12:08:15.425Z,11.25
2018-03-08T12:09:15.434Z,10.65
2018-03-08T12:10:15.448Z,11.02
2018-03-08T12:11:15.502Z,11.86
2018-03-08T12:12:15.469Z,11.90
2018-03-08T12:13:15.477Z,11.80
2018-03-08T12:14:15.489Z,11.19
2018-03-08T12:15:15.500Z,11.36
2018-03-08T12:16:15.553Z,11.25
2018-03-08T12:17:15.520Z,11.24
2018-03-08T12:18:15.530Z,10.68
2018-03-08T12:19:15.539Z,10.92
2018-03-08T12:20:15.551Z,10.42
2018-03-08T12:21:15.612Z,10.33
2018-03-08T12:22:15.612Z,10.60
2018-03-08T12:23:15.579Z,10.81
2018-03-08T12:24:15.589Z,10.51
2018-03-08T12:25:15.597Z,10.44
2018-03-08T12:26:15.646Z,9.86
2018-03-08T12:27:15.615Z,8.99
2018-03-08T12:28:15.761Z,8.63
2018-03-08T12:29:16.005Z,9.10
2018-03-08T12:30:15.634Z,9.18
2018-03-08T12:31:15.684Z,9.18
2018-03-08T12:32:15.647Z,9.42
2018-03-08T12:33:15.653Z,10.21
2018-03-08T12:34:15.658Z,9.85
2018-03-08T12:35:15.667Z,9.12
2018-03-08T12:36:15.707Z,8.87
2018-03-08T12:37:15.674Z,8.68
2018-03-08T12:38:15.722Z,8.88
2018-03-08T12:39:15.685Z,8.76
2018-03-08T12:40:15.687Z,8.96
2018-03-08T12:41:15.702Z,9.12
2018-03-08T12:42:15.694Z,8.79
2018-03-08T12:43:15.739Z,8.79
2018-03-08T12:44:15.703Z,8.69
2018-03-08T12:45:15.701Z,8.76
2018-03-08T12:46:15.708Z,9.09
2018-03-08T12:47:15.708Z,9.05
2018-03-08T12:48:15.752Z,8.72
2018-03-08T12:49:15.713Z,8.68
2018-03-08T12:50:15.715Z,8.54
2018-03-08T12:51:15.717Z,8.53
2018-03-08T12:52:15.732Z,8.58
2018-03-08T12:53:15.767Z,8.88
2018-03-08T12:54:16.722Z,9.66
2018-03-08T12:55:15.726Z,9.94
2018-03-08T12:56:15.727Z,9.61
2018-03-08T12:57:15.746Z,9.81
2018-03-08T12:58:15.772Z,10.25
2018-03-08T12:59:15.733Z,9.82
2018-03-08T13:00:15.779Z,9.53
2018-03-08T13:01:15.739Z,8.99
2018-03-08T13:02:15.743Z,8.65
2018-03-08T13:03:15.782Z,8.54
2018-03-08T13:04:15.751Z,8.54
2018-03-08T13:05:15.749Z,8.29
2018-03-08T13:06:15.758Z,8.63
2018-03-08T13:07:15.792Z,8.94
2018-03-08T13:08:15.752Z,9.10
2018-03-08T13:09:15.758Z,9.02
2018-03-08T13:10:15.757Z,9.05
2018-03-08T13:11:15.761Z,8.81
2018-03-08T13:12:15.806Z,8.42
2018-03-08T13:13:15.761Z,8.30
2018-03-08T13:14:15.764Z,8.55
2018-03-08T13:15:15.809Z,8.65